createdAt,value
2022-10-19T00:00:00.509Z,8.41
2022-10-19T00:02:27.142Z,8.47
2022-10-19T00:04:54.770Z,8.52
2022-10-19T00:07:21.474Z,8.57
2022-10-19T00:09:48.098Z,8.55
2022-10-19T00:12:15.012Z,8.50
2022-10-19T00:14:41.678Z,8.44
2022-10-19T00:17:08.270Z,8.43
2022-10-19T00:19:35.067Z,8.37
2022-10-19T00:22:01.766Z,8.32
2022-10-19T00:24:28.393Z,8.26
2022-10-19T00:26:55.202Z,8.21
2022-10-19T00:29:22.021Z,8.20
2022-10-19T00:31:51.807Z,8.27
2022-10-19T00:34:18.771Z,8.24
2022-10-19T00:36:45.439Z,8.24
2022-10-19T00:39:15.130Z,8.28
2022-10-19T00:41:42.549Z,8.32
2022-10-19T00:44:12.265Z,8.39
2022-10-19T00:46:42.935Z,8.40
2022-10-19T00:49:17.914Z,8.38
2022-10-19T00:51:49.011Z,8.33
2022-10-19T00:54:17.746Z,8.24
2022-10-19T00:56:47.145Z,8.18
2022-10-19T00:59:16.752Z,8.12
2022-10-19T01:01:45.593Z,8.08
2022-10-19T01:04:13.387Z,8.02
2022-10-19T01:06:41.067Z,7.97
2022-10-19T01:09:09.106Z,7.95
2022-10-19T01:11:44.945Z,7.94
2022-10-19T01:14:29.774Z,7.83
2022-10-19T01:17:43.275Z,7.67
2022-10-19T01:20:42.349Z,7.61
2022-10-19T01:23:42.079Z,7.62
2022-10-19T01:26:46.411Z,7.51
2022-10-19T01:29:38.193Z,7.49
2022-10-19T01:32:43.110Z,7.46
2022-10-19T01:35:40.878Z,7.55
2022-10-19T01:38:38.139Z,7.51
2022-10-19T01:41:32.172Z,7.47
2022-10-19T01:44:01.987Z,7.36
2022-10-19T01:46:40.212Z,7.33
2022-10-19T01:49:17.283Z,7.35
2022-10-19T01:51:49.766Z,7.35
2022-10-19T01:54:19.274Z,7.31
2022-10-19T01:56:49.842Z,7.30
2022-10-19T01:59:19.538Z,7.22
2022-10-19T02:01:49.406Z,7.20
2022-10-19T02:04:18.862Z,7.27
2022-10-19T02:06:46.096Z,7.25
2022-10-19T02:09:18.528Z,7.19
2022-10-19T02:11:57.362Z,7.13
2022-10-19T02:14:29.342Z,7.12
2022-10-19T02:17:09.461Z,7.06
2022-10-19T02:19:36.456Z,7.07
2022-10-19T02:22:03.233Z,7.07
2022-10-19T02:24:29.761Z,7.06
2022-10-19T02:26:56.797Z,7.03
2022-10-19T02:29:23.312Z,7.00
2022-10-19T02:31:49.911Z,7.02
2022-10-19T02:34:16.523Z,7.01
2022-10-19T02:36:43.081Z,6.97
2022-10-19T02:39:09.762Z,6.96
2022-10-19T02:41:36.425Z,6.94
2022-10-19T02:44:05.741Z,6.91
2022-10-19T02:46:41.955Z,6.88
2022-10-19T02:49:09.734Z,6.87
2022-10-19T02:51:38.035Z,6.80
2022-10-19T02:54:06.884Z,6.77
2022-10-19T02:56:34.767Z,6.74
2022-10-19T02:59:02.625Z,6.69
2022-10-19T03:01:29.568Z,6.67
2022-10-19T03:03:56.544Z,6.70
2022-10-19T03:06:23.219Z,6.68
2022-10-19T03:08:52.882Z,6.73
2022-10-19T03:11:19.613Z,6.76
2022-10-19T03:16:18.068Z,6.78
2022-10-19T03:18:44.725Z,6.76
2022-10-19T03:21:13.480Z,6.73
2022-10-19T03:23:41.066Z,6.80
2022-10-19T03:26:11.472Z,6.76
2022-10-19T03:28:39.125Z,6.79
2022-10-19T03:31:06.321Z,6.84
2022-10-19T03:33:32.929Z,6.86
2022-10-19T03:36:18.150Z,6.91
2022-10-19T03:38:44.952Z,6.88
2022-10-19T03:41:11.778Z,6.86
2022-10-19T03:43:38.468Z,6.79
2022-10-19T03:46:05.194Z,6.83
2022-10-19T03:48:32.960Z,6.83
2022-10-19T03:51:05.855Z,6.81
2022-10-19T03:53:33.277Z,6.84
2022-10-19T03:56:04.207Z,6.90
2022-10-19T03:58:32.808Z,6.89
2022-10-19T04:00:59.597Z,6.89
2022-10-19T04:03:26.740Z,6.92
2022-10-19T04:05:53.552Z,6.96
2022-10-19T04:08:21.291Z,6.91
2022-10-19T04:10:47.986Z,6.92
2022-10-19T04:13:14.637Z,6.93
2022-10-19T04:15:41.332Z,6.93
2022-10-19T04:18:07.996Z,7.01
2022-10-19T04:20:34.664Z,7.04
2022-10-19T04:23:01.294Z,7.09
2022-10-19T04:25:28.108Z,7.21
2022-10-19T04:27:54.765Z,7.26
2022-10-19T04:30:22.540Z,7.25
2022-10-19T04:32:49.219Z,7.15
2022-10-19T04:35:15.906Z,7.25
2022-10-19T04:37:42.605Z,7.27
2022-10-19T04:40:14.886Z,7.22
2022-10-19T04:42:41.897Z,7.22
2022-10-19T04:45:08.963Z,7.16
2022-10-19T04:47:36.042Z,7.12
2022-10-19T04:50:03.340Z,7.13
2022-10-19T04:52:30.155Z,7.10
2022-10-19T04:54:56.855Z,7.09
2022-10-19T04:57:23.556Z,7.17
2022-10-19T04:59:53.089Z,7.19
2022-10-19T05:02:19.862Z,7.23
2022-10-19T05:04:48.438Z,7.22
2022-10-19T05:07:15.117Z,7.32
2022-10-19T05:09:42.027Z,7.33
2022-10-19T05:12:08.648Z,7.31
2022-10-19T05:14:36.786Z,7.28
2022-10-19T05:17:06.059Z,7.36
2022-10-19T05:19:32.994Z,7.42
2022-10-19T05:21:59.615Z,7.45
2022-10-19T05:24:26.821Z,7.41
2022-10-19T05:26:53.558Z,7.42
2022-10-19T05:29:21.222Z,7.37
2022-10-19T05:31:47.952Z,7.35
2022-10-19T05:34:14.610Z,7.32
2022-10-19T05:36:41.471Z,7.28
2022-10-19T05:39:17.205Z,7.24
2022-10-19T05:41:45.086Z,7.16
2022-10-19T05:44:20.501Z,7.13
2022-10-19T05:46:48.248Z,7.10
2022-10-19T05:49:16.481Z,7.22
2022-10-19T05:51:43.769Z,7.30
2022-10-19T05:54:11.827Z,7.34
2022-10-19T05:56:38.687Z,7.34
2022-10-19T05:59:07.081Z,7.38
2022-10-19T06:01:35.293Z,7.38
2022-10-19T06:04:03.410Z,7.43
2022-10-19T06:06:30.926Z,7.46
2022-10-19T06:08:59.189Z,7.54
2022-10-19T06:11:31.193Z,7.54
2022-10-19T06:13:59.538Z,7.57
2022-10-19T06:16:27.647Z,7.61
2022-10-19T06:18:55.750Z,7.60
2022-10-19T06:21:25.420Z,7.59
2022-10-19T06:24:00.589Z,7.60
2022-10-19T06:26:27.808Z,7.52
2022-10-19T06:29:00.799Z,7.61
2022-10-19T06:31:32.775Z,7.67
2022-10-19T06:33:59.612Z,7.74
2022-10-19T06:36:29.137Z,7.78
2022-10-19T06:38:56.811Z,7.83
2022-10-19T06:41:23.703Z,7.90
2022-10-19T06:43:51.856Z,7.97
2022-10-19T06:46:22.279Z,7.96
2022-10-19T06:49:00.037Z,7.86
2022-10-19T06:51:29.629Z,7.77
2022-10-19T06:53:57.078Z,7.74
2022-10-19T06:56:25.509Z,7.72
2022-10-19T06:58:52.790Z,7.67
2022-10-19T07:01:19.681Z,7.64
2022-10-19T07:03:46.345Z,7.71
2022-10-19T07:06:13.572Z,7.81
2022-10-19T07:08:42.016Z,7.88
2022-10-19T07:11:11.524Z,7.91
2022-10-19T07:13:38.504Z,7.98
2022-10-19T07:16:15.913Z,8.03
2022-10-19T07:18:48.917Z,8.14
2022-10-19T07:21:16.671Z,8.24
2022-10-19T07:23:45.570Z,8.31
2022-10-19T07:26:15.926Z,8.39
2022-10-19T07:28:45.846Z,8.48
2022-10-19T07:31:15.158Z,8.57
2022-10-19T07:33:41.749Z,8.62
2022-10-19T07:36:10.210Z,8.72
2022-10-19T07:38:37.510Z,8.79
2022-10-19T07:41:06.958Z,8.90
2022-10-19T07:43:34.310Z,8.99
2022-10-19T07:46:07.411Z,9.06
2022-10-19T07:48:35.007Z,9.16
2022-10-19T07:51:04.188Z,9.27
2022-10-19T07:53:31.243Z,9.41
2022-10-19T07:56:04.755Z,9.58
2022-10-19T07:58:31.669Z,9.65
2022-10-19T08:01:10.539Z,9.80
2022-10-19T08:06:24.820Z,9.92
2022-10-19T08:08:52.341Z,9.94
2022-10-19T08:11:28.861Z,10.03
2022-10-19T08:14:00.640Z,10.08
2022-10-19T08:16:41.865Z,10.23
2022-10-19T08:19:13.957Z,10.37
2022-10-19T08:21:43.562Z,10.50
2022-10-19T08:24:14.591Z,10.63
2022-10-19T08:26:44.989Z,10.74
2022-10-19T08:29:17.131Z,10.84
2022-10-19T08:31:46.124Z,10.94
2022-10-19T08:34:13.911Z,10.98
2022-10-19T08:39:10.068Z,11.18
2022-10-19T08:41:43.128Z,11.28
2022-10-19T08:44:34.708Z,11.40
2022-10-19T08:47:14.246Z,11.43
2022-10-19T08:49:41.770Z,11.52
2022-10-19T08:52:15.645Z,11.70
2022-10-19T08:54:55.783Z,11.84
2022-10-19T08:57:45.732Z,12.08
2022-10-19T09:00:18.340Z,12.22
2022-10-19T09:03:04.284Z,12.23
2022-10-19T09:05:53.714Z,12.34
2022-10-19T09:08:21.584Z,12.49
2022-10-19T09:10:52.811Z,12.56
2022-10-19T09:13:29.227Z,12.78
2022-10-19T09:16:04.309Z,12.89
2022-10-19T09:18:32.533Z,13.03
2022-10-19T09:20:59.037Z,13.20
2022-10-19T09:23:44.247Z,13.33
2022-10-19T09:26:13.051Z,13.45
2022-10-19T09:28:45.634Z,13.53
2022-10-19T09:31:44.546Z,13.54
2022-10-19T09:34:26.758Z,13.61
2022-10-19T09:36:57.149Z,13.65
2022-10-19T09:39:27.011Z,13.82
2022-10-19T09:41:57.690Z,13.95
2022-10-19T09:44:24.503Z,14.05
2022-10-19T09:46:53.839Z,14.21
2022-10-19T09:49:37.993Z,14.44
2022-10-19T09:52:04.525Z,14.55
2022-10-19T09:54:34.058Z,14.54
2022-10-19T09:57:00.835Z,14.64
2022-10-19T09:59:29.584Z,14.61
2022-10-19T10:02:16.469Z,14.68
2022-10-19T10:04:45.673Z,14.65
2022-10-19T10:07:18.773Z,14.55
2022-10-19T10:09:45.810Z,14.46
2022-10-19T10:12:14.367Z,14.58
2022-10-19T10:14:41.337Z,14.83
2022-10-19T10:17:14.508Z,14.90
2022-10-19T10:19:50.293Z,15.03
2022-10-19T10:22:30.390Z,15.08
2022-10-19T10:24:57.731Z,15.10
2022-10-19T10:27:35.728Z,15.08
2022-10-19T10:30:07.401Z,14.99
2022-10-19T10:32:37.854Z,14.84
2022-10-19T10:35:06.334Z,14.78
2022-10-19T10:37:37.716Z,14.71
2022-10-19T10:40:05.175Z,14.66
2022-10-19T10:42:37.178Z,14.62
2022-10-19T10:45:04.726Z,14.59
2022-10-19T10:47:31.607Z,14.60
2022-10-19T10:50:03.207Z,14.63
2022-10-19T10:52:31.676Z,14.87
2022-10-19T10:54:58.313Z,15.00
2022-10-19T10:57:27.345Z,15.12
2022-10-19T10:59:54.063Z,15.37
2022-10-19T11:02:31.356Z,15.70
2022-10-19T11:05:01.768Z,16.00
2022-10-19T11:07:32.880Z,16.84
2022-10-19T11:10:03.530Z,17.72
2022-10-19T11:12:41.840Z,17.97
2022-10-19T11:15:15.740Z,18.23
2022-10-19T11:17:50.812Z,17.90
2022-10-19T11:20:17.550Z,17.57
2022-10-19T11:22:46.769Z,16.89
2022-10-19T11:25:16.243Z,16.42
2022-10-19T11:27:42.795Z,15.98
2022-10-19T11:30:12.740Z,15.95
2022-10-19T11:32:50.122Z,15.80
2022-10-19T11:35:25.398Z,15.82
2022-10-19T11:38:19.696Z,15.90
2022-10-19T11:41:17.301Z,16.36
2022-10-19T11:43:53.974Z,17.55
2022-10-19T11:46:29.912Z,18.79
2022-10-19T11:48:59.865Z,19.99
2022-10-19T11:51:32.284Z,20.81
2022-10-19T11:54:14.782Z,21.55
2022-10-19T11:57:02.156Z,21.35
2022-10-19T11:59:32.470Z,20.57
2022-10-19T12:02:18.144Z,20.41
2022-10-19T12:04:47.756Z,20.99
2022-10-19T12:07:24.638Z,21.50
2022-10-19T12:10:07.910Z,22.11
2022-10-19T12:12:39.027Z,22.35
2022-10-19T12:15:23.885Z,22.74
2022-10-19T12:17:52.502Z,23.15
2022-10-19T12:20:34.923Z,23.28
2022-10-19T12:23:06.467Z,23.97
2022-10-19T12:25:34.295Z,24.08
2022-10-19T12:28:01.010Z,24.08
2022-10-19T12:30:27.623Z,24.61
2022-10-19T12:33:03.297Z,24.92
2022-10-19T12:35:48.115Z,24.73
2022-10-19T12:38:52.389Z,24.87
2022-10-19T12:41:45.074Z,24.00
2022-10-19T12:44:21.034Z,24.00
2022-10-19T12:46:53.002Z,23.92
2022-10-19T12:49:26.573Z,24.35
2022-10-19T12:52:03.396Z,24.09
2022-10-19T12:54:34.283Z,24.46
2022-10-19T12:57:01.644Z,24.41
2022-10-19T12:59:33.171Z,24.90
2022-10-19T13:01:59.889Z,25.13
2022-10-19T13:04:27.905Z,25.27
2022-10-19T13:06:57.151Z,25.61
2022-10-19T13:09:53.172Z,25.23
2022-10-19T13:12:32.958Z,25.34
2022-10-19T13:15:04.165Z,25.26
2022-10-19T13:17:37.231Z,25.77
2022-10-19T13:20:15.867Z,26.04
2022-10-19T13:22:45.132Z,25.90
2022-10-19T13:25:15.154Z,25.90
2022-10-19T13:27:42.226Z,25.89
2022-10-19T13:30:47.249Z,25.61
2022-10-19T13:33:24.662Z,25.29
2022-10-19T13:36:00.260Z,24.86
2022-10-19T13:38:30.616Z,24.68
2022-10-19T13:41:09.299Z,24.59
2022-10-19T13:43:39.850Z,24.72
2022-10-19T13:46:06.471Z,24.61
2022-10-19T13:48:56.310Z,24.46
2022-10-19T13:51:28.652Z,24.43
2022-10-19T13:54:01.273Z,24.60
2022-10-19T13:59:38.167Z,25.18
2022-10-19T14:02:09.364Z,25.26
2022-10-19T14:04:45.290Z,25.10
2022-10-19T14:07:24.619Z,24.77
2022-10-19T14:10:13.644Z,25.06
2022-10-19T14:12:41.646Z,24.95
2022-10-19T14:15:21.248Z,24.86
2022-10-19T14:17:48.247Z,24.77
2022-10-19T14:20:25.682Z,24.75
2022-10-19T14:22:52.182Z,25.31
2022-10-19T14:25:23.586Z,25.65
2022-10-19T14:27:54.382Z,25.82
2022-10-19T14:30:22.328Z,25.28
2022-10-19T14:32:49.180Z,25.17
2022-10-19T14:35:24.481Z,25.22
2022-10-19T14:37:51.142Z,25.22
2022-10-19T14:40:31.148Z,25.40
2022-10-19T14:42:58.690Z,25.45
2022-10-19T14:45:34.307Z,25.43
2022-10-19T14:48:02.172Z,25.42
2022-10-19T14:50:49.514Z,25.30
2022-10-19T14:53:22.144Z,25.24
2022-10-19T14:55:49.565Z,24.83
2022-10-19T14:58:18.694Z,24.39
2022-10-19T15:00:47.220Z,24.26
2022-10-19T15:03:22.249Z,23.67
2022-10-19T15:05:51.475Z,22.97
2022-10-19T15:08:31.483Z,22.41
2022-10-19T15:11:01.772Z,22.20
2022-10-19T15:13:33.898Z,21.57
2022-10-19T15:16:00.640Z,20.88
2022-10-19T15:18:48.413Z,20.00
2022-10-19T15:21:18.120Z,19.98
2022-10-19T15:23:46.305Z,19.77
2022-10-19T15:26:17.232Z,19.49
2022-10-19T15:28:44.276Z,19.00
2022-10-19T15:31:18.581Z,18.89
2022-10-19T15:33:46.902Z,18.40
2022-10-19T15:36:17.292Z,18.17
2022-10-19T15:38:47.839Z,17.66
2022-10-19T15:41:18.923Z,17.37
2022-10-19T15:43:49.784Z,16.95
2022-10-19T15:46:28.580Z,16.61
2022-10-19T15:48:56.341Z,16.26
2022-10-19T15:51:26.113Z,15.95
2022-10-19T15:53:52.754Z,15.74
2022-10-19T15:56:19.567Z,15.68
2022-10-19T15:58:49.015Z,15.51
2022-10-19T16:01:20.188Z,15.36
2022-10-19T16:03:46.766Z,15.12
2022-10-19T16:06:13.382Z,14.94
2022-10-19T16:08:39.928Z,14.92
2022-10-19T16:11:09.581Z,14.78
2022-10-19T16:13:36.072Z,14.67
2022-10-19T16:16:11.232Z,14.47
2022-10-19T16:18:38.215Z,14.20
2022-10-19T16:21:05.261Z,13.97
2022-10-19T16:23:37.761Z,13.75
2022-10-19T16:26:07.537Z,13.58
2022-10-19T16:28:37.032Z,13.54
2022-10-19T16:31:06.296Z,13.42
2022-10-19T16:33:33.561Z,13.31
2022-10-19T16:36:03.394Z,13.26
2022-10-19T16:38:30.126Z,13.12
2022-10-19T16:40:59.754Z,12.87
2022-10-19T16:43:26.227Z,12.71
2022-10-19T16:45:52.829Z,12.58
2022-10-19T16:48:23.917Z,13.49
2022-10-19T16:51:13.890Z,13.48
2022-10-19T16:53:40.383Z,13.22
2022-10-19T16:56:08.346Z,13.02
2022-10-19T16:58:36.531Z,12.97
2022-10-19T17:01:09.934Z,12.82
2022-10-19T17:03:36.590Z,12.65
2022-10-19T17:06:03.805Z,12.60
2022-10-19T17:08:37.271Z,12.49
2022-10-19T17:11:25.412Z,12.35
2022-10-19T17:13:58.008Z,12.21
2022-10-19T17:16:25.018Z,12.24
2022-10-19T17:18:53.994Z,12.17
2022-10-19T17:21:29.217Z,12.06
2022-10-19T17:23:57.319Z,12.02
2022-10-19T17:26:42.961Z,11.90
2022-10-19T17:29:09.735Z,11.85
2022-10-19T17:31:36.732Z,11.74
2022-10-19T17:34:03.682Z,11.64
2022-10-19T17:36:34.695Z,11.60
2022-10-19T17:39:02.555Z,11.49
2022-10-19T17:41:29.287Z,11.34
2022-10-19T17:43:56.575Z,11.32
2022-10-19T17:46:24.602Z,11.18
2022-10-19T17:48:51.130Z,11.14
2022-10-19T17:51:19.067Z,11.13
2022-10-19T17:53:46.618Z,11.15
2022-10-19T17:56:14.080Z,11.19
2022-10-19T17:58:40.796Z,11.11
2022-10-19T18:01:07.814Z,11.08
2022-10-19T18:03:35.495Z,11.02
2022-10-19T18:06:15.969Z,10.94
2022-10-19T18:08:46.462Z,10.89
2022-10-19T18:11:14.939Z,10.89
2022-10-19T18:13:41.806Z,10.81
2022-10-19T18:16:10.355Z,10.80
2022-10-19T18:18:37.885Z,10.85
2022-10-19T18:21:05.552Z,10.89
2022-10-19T18:23:32.074Z,10.85
2022-10-19T18:26:02.471Z,10.68
2022-10-19T18:28:30.454Z,10.74
2022-10-19T18:31:03.831Z,10.73
2022-10-19T18:33:32.484Z,10.72
2022-10-19T18:35:59.193Z,10.63
2022-10-19T18:38:25.773Z,10.62
2022-10-19T18:40:52.351Z,10.57
2022-10-19T18:43:18.927Z,10.57
2022-10-19T18:45:52.553Z,10.57
2022-10-19T18:48:19.223Z,10.59
2022-10-19T18:50:46.028Z,10.55
2022-10-19T18:53:12.982Z,10.51
2022-10-19T18:55:39.558Z,10.53
2022-10-19T18:58:06.042Z,10.47
2022-10-19T19:00:32.611Z,10.47
2022-10-19T19:02:59.563Z,10.45
2022-10-19T19:05:26.090Z,10.46
2022-10-19T19:07:52.648Z,10.43
2022-10-19T19:10:19.794Z,10.46
2022-10-19T19:12:49.001Z,10.40
2022-10-19T19:15:15.876Z,10.36
2022-10-19T19:17:42.402Z,10.41
2022-10-19T19:20:09.342Z,10.40
2022-10-19T19:22:36.567Z,10.38
2022-10-19T19:25:09.919Z,10.35
2022-10-19T19:27:36.413Z,10.34
2022-10-19T19:30:05.172Z,10.32
2022-10-19T19:32:33.934Z,10.31
2022-10-19T19:35:00.578Z,10.29
2022-10-19T19:37:27.147Z,10.26
2022-10-19T19:39:53.882Z,10.13
2022-10-19T19:42:22.339Z,10.09
2022-10-19T19:44:52.206Z,10.05
2022-10-19T19:47:19.647Z,10.00
2022-10-19T19:49:46.173Z,9.97
2022-10-19T19:52:13.177Z,9.96
2022-10-19T19:54:39.787Z,9.94
2022-10-19T19:57:07.802Z,9.91
2022-10-19T19:59:34.296Z,9.88
2022-10-19T20:02:01.706Z,9.80
2022-10-19T20:04:28.293Z,9.73
2022-10-19T20:06:54.797Z,9.72
2022-10-19T20:09:21.402Z,9.69
2022-10-19T20:11:47.950Z,9.61
2022-10-19T20:14:14.849Z,9.61
2022-10-19T20:16:41.451Z,9.59
2022-10-19T20:19:09.482Z,9.59
2022-10-19T20:21:36.177Z,9.58
2022-10-19T20:24:03.129Z,9.54
2022-10-19T20:26:32.981Z,9.46
2022-10-19T20:29:01.367Z,9.41
2022-10-19T20:33:55.312Z,9.38
2022-10-19T20:36:23.538Z,9.34
2022-10-19T20:38:54.218Z,9.30
2022-10-19T20:41:21.503Z,9.28
2022-10-19T20:43:48.299Z,9.25
2022-10-19T20:46:16.021Z,9.22
2022-10-19T20:48:45.424Z,9.19
2022-10-19T20:51:19.165Z,9.18
2022-10-19T20:53:46.709Z,9.17
2022-10-19T20:56:14.546Z,9.12
2022-10-19T20:58:43.426Z,9.08
2022-10-19T21:01:18.150Z,9.05
2022-10-19T21:03:48.858Z,8.99
2022-10-19T21:06:15.699Z,8.99
2022-10-19T21:08:42.333Z,9.00
2022-10-19T21:11:16.233Z,8.97
2022-10-19T21:13:43.118Z,8.96
2022-10-19T21:16:10.603Z,8.92
2022-10-19T21:18:37.134Z,8.87
2022-10-19T21:21:12.103Z,8.82
2022-10-19T21:23:38.627Z,8.80
2022-10-19T21:26:05.154Z,8.77
2022-10-19T21:28:31.674Z,8.72
2022-10-19T21:31:02.330Z,8.70
2022-10-19T21:33:28.832Z,8.69
2022-10-19T21:35:55.408Z,8.71
2022-10-19T21:38:22.075Z,8.66
2022-10-19T21:40:48.541Z,8.61
2022-10-19T21:43:15.010Z,8.54
2022-10-19T21:45:41.535Z,8.52
2022-10-19T21:48:08.028Z,8.47
2022-10-19T21:50:34.569Z,8.46
2022-10-19T21:53:01.192Z,8.44
2022-10-19T21:55:29.691Z,8.43
2022-10-19T21:57:56.173Z,8.45
2022-10-19T22:00:22.943Z,8.38
2022-10-19T22:02:49.495Z,8.37
2022-10-19T22:05:16.031Z,8.36
2022-10-19T22:07:42.747Z,8.36
2022-10-19T22:10:09.515Z,8.34
2022-10-19T22:12:36.229Z,8.29
2022-10-19T22:15:02.994Z,8.29
2022-10-19T22:17:29.483Z,8.25
2022-10-19T22:19:56.002Z,8.26
2022-10-19T22:22:22.517Z,8.24
2022-10-19T22:24:49.134Z,8.24
2022-10-19T22:27:15.645Z,8.12
2022-10-19T22:29:42.178Z,8.19
2022-10-19T22:32:08.926Z,8.07
2022-10-19T22:34:35.473Z,8.17
2022-10-19T22:37:02.055Z,8.12
2022-10-19T22:39:30.119Z,8.06
2022-10-19T22:41:56.782Z,8.04
2022-10-19T22:44:23.428Z,8.09
2022-10-19T22:46:49.986Z,8.08
2022-10-19T22:49:16.555Z,8.07
2022-10-19T22:51:48.863Z,8.06
2022-10-19T22:54:17.833Z,8.06
2022-10-19T22:56:44.382Z,8.04
2022-10-19T22:59:10.963Z,8.02
2022-10-19T23:01:37.675Z,8.01
2022-10-19T23:04:04.258Z,7.98
2022-10-19T23:06:30.898Z,8.00
2022-10-19T23:08:57.529Z,7.96
2022-10-19T23:11:24.113Z,7.97
2022-10-19T23:13:50.796Z,7.96
2022-10-19T23:16:17.475Z,7.93
2022-10-19T23:18:44.024Z,7.91
2022-10-19T23:21:13.894Z,7.91
2022-10-19T23:23:40.978Z,7.91
2022-10-19T23:26:09.918Z,7.86
2022-10-19T23:28:37.434Z,7.86
2022-10-19T23:31:08.383Z,7.80
2022-10-19T23:33:35.230Z,7.77
2022-10-19T23:36:03.399Z,7.74
2022-10-19T23:38:29.997Z,7.71
2022-10-19T23:40:56.540Z,7.69
2022-10-19T23:43:23.175Z,7.70
2022-10-19T23:45:49.678Z,7.64
2022-10-19T23:48:16.273Z,7.62
2022-10-19T23:50:42.844Z,7.60
2022-10-19T23:53:09.413Z,7.61
2022-10-19T23:55:35.935Z,7.58
2022-10-19T23:58:02.454Z,7.59
